Time,TemperatureF,DewpointF,PressureIn,WindDirection,WindDirectionDegrees,WindSpeedMPH,WindSpeedGustMPH,Humidity,HourlyPrecipIn,Conditions,Clouds,dailyrainin,SolarRadiationWatts/m^2,SoftwareType,DateUTC
2013-03-09 00:00:00,42.6,7.3,30.27,NNE,28,0.0,2.0,23,0.00,,,0.00,0.0,meteohub,2013-03-09 05:00:00,
2013-03-09 00:01:00,42.6,6.4,30.27,NNE,28,0.0,2.0,22,0.00,,,0.00,0.0,meteohub,2013-03-09 05:01:00,
2013-03-09 00:06:00,42.1,12.0,30.27,NNE,28,0.0,1.0,29,0.00,,,0.00,0.0,meteohub,2013-03-09 05:06:00,
2013-03-09 00:11:00,40.1,9.7,30.27,NNE,28,0.0,0.0,28,0.00,,,0.00,0.0,meteohub,2013-03-09 05:11:00,
2013-03-09 00:16:00,39.4,8.2,30.27,NNE,28,2.0,3.0,27,0.00,,,0.00,0.0,meteohub,2013-03-09 05:16:00,
2013-03-09 00:21:00,40.3,10.6,30.27,NNE,28,1.0,3.0,29,0.00,,,0.00,0.0,meteohub,2013-03-09 05:21:00,
2013-03-09 00:26:00,41.2,10.6,30.27,NNE,28,0.0,3.0,28,0.00,,,0.00,0.0,meteohub,2013-03-09 05:26:00,
2013-03-09 00:31:00,41.5,11.7,30.27,NNE,28,1.0,2.0,29,0.00,,,0.00,0.0,meteohub,2013-03-09 05:31:00,
2013-03-09 00:36:00,41.7,9.3,30.27,NNE,28,0.0,2.0,26,0.00,,,0.00,0.0,meteohub,2013-03-09 05:36:00,
2013-03-09 00:41:00,41.7,9.3,30.27,NNE,28,0.0,2.0,26,0.00,,,0.00,0.0,meteohub,2013-03-09 05:41:00,
2013-03-09 00:46:00,41.5,9.1,30.27,NNE,28,1.0,1.0,26,0.00,,,0.00,0.0,meteohub,2013-03-09 05:46:00,
2013-03-09 00:52:00,41.7,10.9,30.27,NNE,28,0.0,1.0,28,0.00,,,0.00,0.0,meteohub,2013-03-09 05:52:00,
2013-03-09 00:57:00,41.5,11.7,30.27,NNE,28,0.0,1.0,29,0.00,,,0.00,0.0,meteohub,2013-03-09 05:57:00,
2013-03-09 01:02:00,41.4,11.5,30.27,NNE,28,0.0,1.0,29,0.00,,,0.00,0.0,meteohub,2013-03-09 06:02:00,
2013-03-09 01:07:00,41.5,12.4,30.27,NNE,28,0.0,2.0,30,0.00,,,0.00,0.0,meteohub,2013-03-09 06:07:00,
2013-03-09 01:12:00,40.5,14.9,30.27,NNE,28,1.0,2.0,35,0.00,,,0.00,0.0,meteohub,2013-03-09 06:12:00,
2013-03-09 01:17:00,40.6,15.8,30.27,NNE,28,0.0,2.0,36,0.00,,,0.00,0.0,meteohub,2013-03-09 06:17:00,
2013-03-09 01:22:00,39.7,15.6,30.27,NNE,28,0.0,2.0,37,0.00,,,0.00,0.0,meteohub,2013-03-09 06:22:00,
2013-03-09 01:27:00,39.6,17.2,30.27,NNE,28,0.0,2.0,40,0.00,,,0.00,0.0,meteohub,2013-03-09 06:27:00,
2013-03-09 01:32:00,39.0,17.2,30.27,NNE,28,0.0,0.0,41,0.00,,,0.00,0.0,meteohub,2013-03-09 06:32:00,
2013-03-09 01:37:00,39.4,15.8,30.27,NNE,28,1.0,1.0,38,0.00,,,0.00,0.0,meteohub,2013-03-09 06:37:00,
2013-03-09 01:42:00,39.6,17.8,30.27,NNE,28,0.0,2.0,41,0.00,,,0.00,0.0,meteohub,2013-03-09 06:42:00,
2013-03-09 01:47:00,38.8,17.8,30.27,NNE,28,1.0,2.0,42,0.00,,,0.00,0.0,meteohub,2013-03-09 06:47:00,
2013-03-09 01:52:00,39.4,18.7,30.27,NNE,28,1.0,2.0,43,0.00,,,0.00,0.0,meteohub,2013-03-09 06:52:00,
2013-03-09 01:57:00,39.0,18.5,30.27,NNE,28,1.0,2.0,43,0.00,,,0.00,0.0,meteohub,2013-03-09 06:57:00,
2013-03-09 02:02:00,38.1,19.2,30.27,NNE,28,0.0,2.0,46,0.00,,,0.00,0.0,meteohub,2013-03-09 07:02:00,
2013-03-09 02:07:00,37.4,18.0,30.27,NNE,28,0.0,2.0,45,0.00,,,0.00,0.0,meteohub,2013-03-09 07:07:00,
2013-03-09 02:12:00,37.2,17.2,30.27,NNE,28,0.0,2.0,44,0.00,,,0.00,0.0,meteohub,2013-03-09 07:12:00,
2013-03-09 02:17:00,37.6,17.1,30.27,NNE,28,0.0,1.0,43,0.00,,,0.00,0.0,meteohub,2013-03-09 07:17:00,
2013-03-09 02:23:00,37.8,16.7,30.27,NNE,28,0.0,1.0,42,0.00,,,0.00,0.0,meteohub,2013-03-09 07:23:00,
2013-03-09 02:28:00,37.9,17.4,30.27,NNE,28,0.0,0.0,43,0.00,,,0.00,0.0,meteohub,2013-03-09 07:28:00,
2013-03-09 02:33:00,37.9,18.5,30.26,NNE,28,0.0,1.0,45,0.00,,,0.00,0.0,meteohub,2013-03-09 07:33:00,
2013-03-09 02:38:00,37.9,18.5,30.26,NNE,28,0.0,1.0,45,0.00,,,0.00,0.0,meteohub,2013-03-09 07:38:00,
2013-03-09 02:43:00,38.3,18.9,30.25,NNE,28,0.0,1.0,45,0.00,,,0.00,0.0,meteohub,2013-03-09 07:43:00,
2013-03-09 02:48:00,38.8,18.3,30.25,NNE,28,0.0,2.0,43,0.00,,,0.00,0.0,meteohub,2013-03-09 07:48:00,
2013-03-09 02:53:00,39.0,18.5,30.25,NNE,28,0.0,2.0,43,0.00,,,0.00,0.0,meteohub,2013-03-09 07:53:00,
2013-03-09 02:58:00,38.8,18.3,30.25,NNE,28,0.0,2.0,43,0.00,,,0.00,0.0,meteohub,2013-03-09 07:58:00,
2013-03-09 03:03:00,39.0,18.5,30.25,NNE,28,0.0,1.0,43,0.00,,,0.00,0.0,meteohub,2013-03-09 08:03:00,
2013-03-09 03:09:00,39.4,19.2,30.25,NNE,28,0.0,1.0,44,0.00,,,0.00,0.0,meteohub,2013-03-09 08:09:00,
2013-03-09 03:14:00,39.2,19.0,30.25,NNE,28,0.0,2.0,44,0.00,,,0.00,0.0,meteohub,2013-03-09 08:14:00,
2013-03-09 03:19:00,39.4,18.1,30.25,NNE,28,0.0,2.0,42,0.00,,,0.00,0.0,meteohub,2013-03-09 08:19:00,
2013-03-09 03:24:00,39.0,18.9,30.25,NNE,28,0.0,2.0,44,0.00,,,0.00,0.0,meteohub,2013-03-09 08:24:00,
2013-03-09 03:29:00,38.8,18.3,30.25,NNE,28,1.0,0.0,43,0.00,,,0.00,0.0,meteohub,2013-03-09 08:29:00,
2013-03-09 03:34:00,39.0,18.5,30.24,NNE,28,1.0,1.0,43,0.00,,,0.00,0.0,meteohub,2013-03-09 08:34:00,
2013-03-09 03:39:00,39.6,18.9,30.24,NNE,28,0.0,1.0,43,0.00,,,0.00,0.0,meteohub,2013-03-09 08:39:00,
2013-03-09 03:44:00,39.6,19.4,30.24,NNE,28,0.0,1.0,44,0.00,,,0.00,0.0,meteohub,2013-03-09 08:44:00,
2013-03-09 03:49:00,39.6,19.4,30.24,NNE,28,1.0,1.0,44,0.00,,,0.00,0.0,meteohub,2013-03-09 08:49:00,
2013-03-09 03:54:00,39.6,18.9,30.24,NNE,28,1.0,1.0,43,0.00,,,0.00,0.0,meteohub,2013-03-09 08:54:00,
2013-03-09 03:59:00,39.6,18.9,30.24,NNE,28,0.0,2.0,43,0.00,,,0.00,0.0,meteohub,2013-03-09 08:59:00,
2013-03-09 04:05:00,39.6,18.9,30.24,NNE,28,2.0,2.0,43,0.00,,,0.00,0.0,meteohub,2013-03-09 09:05:00,
2013-03-09 04:10:00,39.7,19.0,30.24,NNE,28,2.0,2.0,43,0.00,,,0.00,0.0,meteohub,2013-03-09 09:10:00,
2013-03-09 04:15:00,39.7,19.6,30.23,NNE,28,1.0,2.0,44,0.00,,,0.00,0.0,meteohub,2013-03-09 09:15:00,
2013-03-09 04:20:00,40.1,19.4,30.23,NNE,28,1.0,2.0,43,0.00,,,0.00,0.0,meteohub,2013-03-09 09:20:00,
2013-03-09 04:25:00,40.3,19.6,30.23,NNE,28,0.0,2.0,43,0.00,,,0.00,0.0,meteohub,2013-03-09 09:25:00,
2013-03-09 04:30:00,40.3,19.6,30.23,NNE,28,1.0,2.0,43,0.00,,,0.00,0.0,meteohub,2013-03-09 09:30:00,
2013-03-09 04:35:00,40.3,19.6,30.23,NNE,28,0.0,1.0,43,0.00,,,0.00,0.0,meteohub,2013-03-09 09:35:00,
2013-03-09 04:40:00,40.1,19.4,30.23,NNE,28,1.0,2.0,43,0.00,,,0.00,0.0,meteohub,2013-03-09 09:40:00,
2013-03-09 04:45:00,40.3,19.6,30.24,NNE,28,1.0,2.0,43,0.00,,,0.00,0.0,meteohub,2013-03-09 09:45:00,
2013-03-09 04:50:00,40.3,19.0,30.24,NNE,28,0.0,2.0,42,0.00,,,0.00,0.0,meteohub,2013-03-09 09:50:00,
2013-03-09 04:56:00,40.3,19.6,30.23,NNE,28,0.0,2.0,43,0.00,,,0.00,0.0,meteohub,2013-03-09 09:56:00,
2013-03-09 05:01:00,40.1,18.9,30.23,NNE,28,0.0,2.0,42,0.00,,,0.00,0.0,meteohub,2013-03-09 10:01:00,
2013-03-09 05:06:00,40.3,18.5,30.23,NNE,28,0.0,1.0,41,0.00,,,0.00,0.0,meteohub,2013-03-09 10:06:00,
2013-03-09 05:11:00,40.1,18.3,30.23,NNE,28,0.0,1.0,41,0.00,,,0.00,0.0,meteohub,2013-03-09 10:11:00,
2013-03-09 05:16:00,39.7,19.0,30.23,NNE,28,0.0,1.0,43,0.00,,,0.00,0.0,meteohub,2013-03-09 10:16:00,
2013-03-09 05:21:00,39.6,19.4,30.24,NNE,28,1.0,2.0,44,0.00,,,0.00,0.0,meteohub,2013-03-09 10:21:00,
2013-03-09 05:26:00,39.6,18.9,30.24,NNE,28,0.0,2.0,43,0.00,,,0.00,0.0,meteohub,2013-03-09 10:26:00,
2013-03-09 05:31:00,39.6,18.9,30.24,NNE,28,0.0,2.0,43,0.00,,,0.00,0.0,meteohub,2013-03-09 10:31:00,
2013-03-09 05:36:00,39.6,19.4,30.24,NNE,28,3.0,3.0,44,0.00,,,0.00,0.0,meteohub,2013-03-09 10:36:00,
2013-03-09 05:41:00,39.7,20.1,30.24,NNE,28,0.0,3.0,45,0.00,,,0.00,0.0,meteohub,2013-03-09 10:41:00,
2013-03-09 05:47:00,39.7,20.7,30.24,NNE,28,0.0,3.0,46,0.00,,,0.00,0.0,meteohub,2013-03-09 10:47:00,
2013-03-09 05:52:00,39.6,20.5,30.24,NNE,28,0.0,3.0,46,0.00,,,0.00,0.0,meteohub,2013-03-09 10:52:00,
2013-03-09 05:57:00,39.0,20.5,30.24,NNE,28,1.0,2.0,47,0.00,,,0.00,0.0,meteohub,2013-03-09 10:57:00,
2013-03-09 06:02:00,38.8,20.3,30.24,NNE,28,1.0,2.0,47,0.00,,,0.00,0.0,meteohub,2013-03-09 11:02:00,
2013-03-09 06:07:00,38.5,19.6,30.24,NNE,28,2.0,2.0,46,0.00,,,0.00,0.0,meteohub,2013-03-09 11:07:00,
2013-03-09 06:12:00,38.3,19.4,30.25,SE,132,1.0,2.0,46,0.00,,,0.00,0.0,meteohub,2013-03-09 11:12:00,
2013-03-09 06:17:00,38.3,18.9,30.25,SE,126,0.0,3.0,45,0.00,,,0.00,0.0,meteohub,2013-03-09 11:17:00,
2013-03-09 06:22:00,38.3,18.9,30.25,SE,142,1.0,4.0,45,0.00,,,0.00,0.0,meteohub,2013-03-09 11:22:00,
2013-03-09 06:27:00,37.9,18.5,30.25,East,97,3.0,4.0,45,0.00,,,0.00,0.0,meteohub,2013-03-09 11:27:00,
2013-03-09 06:32:00,37.9,19.0,30.25,East,96,1.0,5.0,46,0.00,,,0.00,0.0,meteohub,2013-03-09 11:32:00,
2013-03-09 06:37:00,37.6,18.1,30.25,SE,128,0.0,5.0,45,0.00,,,0.00,0.0,meteohub,2013-03-09 11:37:00,
2013-03-09 06:42:00,37.6,18.1,30.25,SE,128,0.0,5.0,45,0.00,,,0.00,0.0,meteohub,2013-03-09 11:42:00,
2013-03-09 06:47:00,37.6,18.1,30.25,SE,128,1.0,2.0,45,0.00,,,0.00,0.0,meteohub,2013-03-09 11:47:00,
2013-03-09 06:52:00,37.6,18.7,30.25,SE,128,0.0,2.0,46,0.00,,,0.00,0.0,meteohub,2013-03-09 11:52:00,
2013-03-09 06:57:00,37.2,18.3,30.26,SE,128,0.0,2.0,46,0.00,,,0.00,7.0,meteohub,2013-03-09 11:57:00,
2013-03-09 07:02:00,37.2,18.9,30.26,SE,128,0.0,2.0,47,0.00,,,0.00,9.0,meteohub,2013-03-09 12:02:00,
2013-03-09 07:07:00,37.0,19.2,30.26,SE,128,0.0,2.0,48,0.00,,,0.00,11.0,meteohub,2013-03-09 12:07:00,
2013-03-09 07:12:00,36.5,19.2,30.27,SE,128,0.0,2.0,49,0.00,,,0.00,12.0,meteohub,2013-03-09 12:12:00,
2013-03-09 07:17:00,36.7,19.4,30.27,SSW,203,2.0,2.0,49,0.00,,,0.00,14.0,meteohub,2013-03-09 12:17:00,
2013-03-09 07:22:00,36.7,18.9,30.27,South,181,1.0,3.0,48,0.00,,,0.00,18.0,meteohub,2013-03-09 12:22:00,
2013-03-09 07:27:00,36.9,19.0,30.27,South,171,0.0,3.0,48,0.00,,,0.00,21.0,meteohub,2013-03-09 12:27:00,
2013-03-09 07:32:00,37.0,18.7,30.27,SSE,166,1.0,3.0,47,0.00,,,0.00,23.0,meteohub,2013-03-09 12:32:00,
2013-03-09 07:37:00,37.2,18.9,30.27,SSE,166,0.0,3.0,47,0.00,,,0.00,25.0,meteohub,2013-03-09 12:37:00,
2013-03-09 07:42:00,37.0,19.2,30.27,SE,144,0.0,3.0,48,0.00,,,0.00,33.0,meteohub,2013-03-09 12:42:00,
2013-03-09 07:47:00,37.2,18.9,30.27,SE,144,1.0,3.0,47,0.00,,,0.00,42.0,meteohub,2013-03-09 12:47:00,
2013-03-09 07:52:00,37.6,19.2,30.27,SE,140,2.0,3.0,47,0.00,,,0.00,47.0,meteohub,2013-03-09 12:52:00,
2013-03-09 07:57:00,37.8,18.9,30.27,SE,140,0.0,3.0,46,0.00,,,0.00,53.0,meteohub,2013-03-09 12:57:00,
2013-03-09 08:02:00,37.8,19.4,30.27,SE,140,0.0,3.0,47,0.00,,,0.00,49.0,meteohub,2013-03-09 13:02:00,
2013-03-09 08:07:00,37.9,19.6,30.27,SE,140,0.0,3.0,47,0.00,,,0.00,74.0,meteohub,2013-03-09 13:07:00,
2013-03-09 08:12:00,37.9,19.6,30.27,SE,140,0.0,3.0,47,0.00,,,0.00,88.0,meteohub,2013-03-09 13:12:00,
2013-03-09 08:17:00,38.1,20.7,30.27,SE,140,0.0,2.0,49,0.00,,,0.00,54.0,meteohub,2013-03-09 13:17:00,
2013-03-09 08:22:00,38.5,20.5,30.27,SE,140,0.0,2.0,48,0.00,,,0.00,72.0,meteohub,2013-03-09 13:22:00,
2013-03-09 08:27:00,39.0,21.0,30.28,South,169,0.0,3.0,48,0.00,,,0.00,100.0,meteohub,2013-03-09 13:27:00,
2013-03-09 08:32:00,39.4,21.4,30.28,SSW,212,0.0,3.0,48,0.00,,,0.00,104.0,meteohub,2013-03-09 13:32:00,
2013-03-09 08:37:00,39.4,21.4,30.28,SSW,200,1.0,3.0,48,0.00,,,0.00,97.0,meteohub,2013-03-09 13:37:00,
2013-03-09 08:42:00,39.4,21.7,30.28,South,188,0.0,3.0,49,0.00,,,0.00,225.0,meteohub,2013-03-09 13:42:00,
2013-03-09 08:47:00,39.4,21.4,30.28,South,188,2.0,3.0,48,0.00,,,0.00,142.0,meteohub,2013-03-09 13:47:00,
2013-03-09 08:52:00,39.2,20.7,30.28,South,188,2.0,3.0,47,0.00,,,0.00,121.0,meteohub,2013-03-09 13:52:00,
2013-03-09 08:57:00,39.0,21.6,30.28,South,185,1.0,3.0,49,0.00,,,0.00,120.0,meteohub,2013-03-09 13:57:00,
2013-03-09 09:02:00,39.0,21.9,30.28,SSE,163,1.0,3.0,50,0.00,,,0.00,258.0,meteohub,2013-03-09 14:02:00,
2013-03-09 09:07:00,39.7,22.6,30.28,SSE,163,1.0,3.0,50,0.00,,,0.00,339.0,meteohub,2013-03-09 14:07:00,
2013-03-09 09:12:00,39.7,21.7,30.28,SSE,163,0.0,3.0,48,0.00,,,0.00,408.0,meteohub,2013-03-09 14:12:00,
2013-03-09 09:17:00,40.1,22.5,30.28,SSE,165,1.0,3.0,49,0.00,,,0.00,394.0,meteohub,2013-03-09 14:17:00,
2013-03-09 09:22:00,40.6,23.5,30.28,South,170,0.0,5.0,50,0.00,,,0.00,394.0,meteohub,2013-03-09 14:22:00,
2013-03-09 09:27:00,41.5,24.8,30.28,SSW,193,0.0,5.0,51,0.00,,,0.00,346.0,meteohub,2013-03-09 14:27:00,
2013-03-09 09:32:00,41.5,22.8,30.28,SSE,159,1.0,5.0,47,0.00,,,0.00,376.0,meteohub,2013-03-09 14:32:00,
2013-03-09 09:37:00,41.7,23.0,30.28,South,180,1.0,5.0,47,0.00,,,0.00,359.0,meteohub,2013-03-09 14:37:00,
2013-03-09 09:42:00,42.6,24.3,30.28,South,170,1.0,5.0,48,0.00,,,0.00,413.0,meteohub,2013-03-09 14:42:00,
2013-03-09 09:47:00,42.6,24.3,30.28,SE,140,2.0,5.0,48,0.00,,,0.00,520.0,meteohub,2013-03-09 14:47:00,
2013-03-09 09:52:00,42.6,22.8,30.28,East,93,2.0,5.0,45,0.00,,,0.00,533.0,meteohub,2013-03-09 14:52:00,
2013-03-09 09:57:00,42.6,24.3,30.29,SSE,160,3.0,4.0,48,0.00,,,0.00,547.0,meteohub,2013-03-09 14:57:00,
2013-03-09 10:02:00,44.2,25.3,30.29,SSW,202,1.0,6.0,47,0.00,,,0.00,561.0,meteohub,2013-03-09 15:02:00,
2013-03-09 10:07:00,43.3,24.4,30.29,SSE,148,0.0,6.0,47,0.00,,,0.00,573.0,meteohub,2013-03-09 15:07:00,
2013-03-09 10:12:00,44.6,25.2,30.29,SW,220,0.0,6.0,46,0.00,,,0.00,587.0,meteohub,2013-03-09 15:12:00,
2013-03-09 10:17:00,45.0,23.7,30.29,WSW,257,1.0,6.0,43,0.00,,,0.00,599.0,meteohub,2013-03-09 15:17:00,
2013-03-09 10:22:00,44.1,25.2,30.28,WSW,238,2.0,4.0,47,0.00,,,0.00,610.0,meteohub,2013-03-09 15:22:00,
2013-03-09 10:27:00,44.4,24.4,30.29,SE,140,2.0,4.0,45,0.00,,,0.00,621.0,meteohub,2013-03-09 15:27:00,
2013-03-09 10:32:00,44.2,23.7,30.29,SSE,156,2.0,4.0,44,0.00,,,0.00,635.0,meteohub,2013-03-09 15:32:00,
2013-03-09 10:37:00,45.1,24.4,30.29,SSE,153,0.0,4.0,44,0.00,,,0.00,649.0,meteohub,2013-03-09 15:37:00,
2013-03-09 10:42:00,45.1,25.0,30.29,SSE,156,1.0,4.0,45,0.00,,,0.00,668.0,meteohub,2013-03-09 15:42:00,
2013-03-09 10:47:00,45.3,25.2,30.29,SSE,163,2.0,4.0,45,0.00,,,0.00,675.0,meteohub,2013-03-09 15:47:00,
2013-03-09 10:52:00,46.2,25.5,30.29,East,97,3.0,5.0,44,0.00,,,0.00,668.0,meteohub,2013-03-09 15:52:00,
2013-03-09 10:57:00,46.6,25.9,30.28,ESE,119,2.0,5.0,44,0.00,,,0.00,693.0,meteohub,2013-03-09 15:57:00,
2013-03-09 11:02:00,45.7,25.5,30.28,SW,219,3.0,5.0,45,0.00,,,0.00,696.0,meteohub,2013-03-09 16:02:00,
2013-03-09 11:07:00,46.0,26.4,30.28,SE,134,6.0,6.0,46,0.00,,,0.00,700.0,meteohub,2013-03-09 16:07:00,
2013-03-09 11:12:00,46.9,26.8,30.28,South,178,2.0,6.0,45,0.00,,,0.00,700.0,meteohub,2013-03-09 16:12:00,
2013-03-09 11:17:00,46.8,26.1,30.28,West,262,0.0,6.0,44,0.00,,,0.00,719.0,meteohub,2013-03-09 16:17:00,
2013-03-09 11:22:00,47.7,26.2,30.28,SSE,149,4.0,6.0,43,0.00,,,0.00,728.0,meteohub,2013-03-09 16:22:00,
2013-03-09 11:27:00,48.7,26.1,30.28,NE,44,0.0,4.0,41,0.00,,,0.00,735.0,meteohub,2013-03-09 16:27:00,
2013-03-09 11:32:00,48.7,27.9,30.28,SSE,157,1.0,6.0,44,0.00,,,0.00,740.0,meteohub,2013-03-09 16:32:00,
2013-03-09 11:38:00,48.0,26.6,30.28,South,182,2.0,6.0,43,0.00,,,0.00,749.0,meteohub,2013-03-09 16:38:00,
2013-03-09 11:43:00,48.6,25.9,30.28,SW,225,3.0,6.0,41,0.00,,,0.00,754.0,meteohub,2013-03-09 16:43:00,
2013-03-09 11:48:00,48.2,26.8,30.28,SE,144,1.0,6.0,43,0.00,,,0.00,758.0,meteohub,2013-03-09 16:48:00,
2013-03-09 11:53:00,49.5,27.3,30.28,SE,124,3.0,6.0,42,0.00,,,0.00,773.0,meteohub,2013-03-09 16:53:00,
2013-03-09 11:58:00,49.8,26.4,30.28,SE,146,2.0,6.0,40,0.00,,,0.00,782.0,meteohub,2013-03-09 16:58:00,
2013-03-09 12:03:00,48.0,26.1,30.28,East,98,3.0,6.0,42,0.00,,,0.00,512.0,meteohub,2013-03-09 17:03:00,
2013-03-09 12:08:00,48.0,26.6,30.28,SE,130,4.0,6.0,43,0.00,,,0.00,780.0,meteohub,2013-03-09 17:08:00,
2013-03-09 12:13:00,48.9,27.3,30.28,SSE,167,0.0,6.0,43,0.00,,,0.00,654.0,meteohub,2013-03-09 17:13:00,
2013-03-09 12:18:00,49.6,27.5,30.27,SSW,198,2.0,5.0,42,0.00,,,0.00,531.0,meteohub,2013-03-09 17:18:00,
2013-03-09 12:23:00,49.8,27.7,30.27,SW,223,1.0,5.0,42,0.00,,,0.00,823.0,meteohub,2013-03-09 17:23:00,
2013-03-09 12:28:00,50.2,28.0,30.27,South,180,2.0,5.0,42,0.00,,,0.00,789.0,meteohub,2013-03-09 17:28:00,
2013-03-09 12:34:00,51.4,29.7,30.27,SW,216,2.0,6.0,43,0.00,,,0.00,851.0,meteohub,2013-03-09 17:34:00,
2013-03-09 12:39:00,52.0,27.1,30.28,SSE,167,0.0,6.0,38,0.00,,,0.00,710.0,meteohub,2013-03-09 17:39:00,
2013-03-09 12:44:00,51.1,27.7,30.28,SW,221,4.0,5.0,40,0.00,,,0.00,728.0,meteohub,2013-03-09 17:44:00,
2013-03-09 12:49:00,51.3,28.4,30.27,SSW,193,1.0,7.0,41,0.00,,,0.00,664.0,meteohub,2013-03-09 17:49:00,
2013-03-09 12:54:00,52.3,28.8,30.27,ESE,118,3.0,7.0,40,0.00,,,0.00,612.0,meteohub,2013-03-09 17:54:00,
2013-03-09 12:59:00,51.3,28.4,30.28,SSE,162,1.0,7.0,41,0.00,,,0.00,526.0,meteohub,2013-03-09 17:59:00,
2013-03-09 13:04:00,51.1,28.2,30.27,East,87,3.0,5.0,41,0.00,,,0.00,698.0,meteohub,2013-03-09 18:04:00,
2013-03-09 13:09:00,51.3,27.7,30.27,ESE,104,1.0,5.0,40,0.00,,,0.00,510.0,meteohub,2013-03-09 18:09:00,
2013-03-09 13:14:00,51.3,27.7,30.27,ESE,123,1.0,5.0,40,0.00,,,0.00,566.0,meteohub,2013-03-09 18:14:00,
2013-03-09 13:19:00,53.2,28.9,30.27,WSW,238,3.0,5.0,39,0.00,,,0.00,673.0,meteohub,2013-03-09 18:19:00,
2013-03-09 13:24:00,53.8,29.5,30.27,SW,215,2.0,5.0,39,0.00,,,0.00,796.0,meteohub,2013-03-09 18:24:00,
2013-03-09 13:29:00,54.3,29.8,30.26,West,263,2.0,5.0,39,0.00,,,0.00,775.0,meteohub,2013-03-09 18:29:00,
2013-03-09 13:35:00,53.8,29.5,30.26,ESE,105,3.0,7.0,39,0.00,,,0.00,772.0,meteohub,2013-03-09 18:35:00,
2013-03-09 13:40:00,52.9,28.6,30.26,East,79,3.0,7.0,39,0.00,,,0.00,772.0,meteohub,2013-03-09 18:40:00,
2013-03-09 13:45:00,52.9,28.6,30.25,SSE,157,2.0,8.0,39,0.00,,,0.00,747.0,meteohub,2013-03-09 18:45:00,
2013-03-09 13:50:00,52.9,29.3,30.25,SSE,162,2.0,8.0,40,0.00,,,0.00,712.0,meteohub,2013-03-09 18:50:00,
2013-03-09 13:55:00,54.0,29.5,30.25,South,169,2.0,6.0,39,0.00,,,0.00,729.0,meteohub,2013-03-09 18:55:00,
2013-03-09 14:00:00,53.6,29.8,30.24,WSW,249,3.0,6.0,40,0.00,,,0.00,675.0,meteohub,2013-03-09 19:00:00,
2013-03-09 14:05:00,54.9,30.4,30.24,SSE,161,0.0,6.0,39,0.00,,,0.00,715.0,meteohub,2013-03-09 19:05:00,
2013-03-09 14:10:00,54.9,29.1,30.23,ESE,103,1.0,4.0,37,0.00,,,0.00,722.0,meteohub,2013-03-09 19:10:00,
2013-03-09 14:15:00,55.0,29.3,30.24,SSE,167,4.0,4.0,37,0.00,,,0.00,721.0,meteohub,2013-03-09 19:15:00,
2013-03-09 14:20:00,55.2,30.0,30.23,SW,223,0.0,6.0,38,0.00,,,0.00,698.0,meteohub,2013-03-09 19:20:00,
2013-03-09 14:25:00,56.8,30.2,30.23,South,184,5.0,6.0,36,0.00,,,0.00,638.0,meteohub,2013-03-09 19:25:00,
2013-03-09 14:30:00,54.9,28.4,30.23,SW,224,0.0,6.0,36,0.00,,,0.00,668.0,meteohub,2013-03-09 19:30:00,
2013-03-09 14:35:00,55.8,30.6,30.23,South,189,2.0,7.0,38,0.00,,,0.00,684.0,meteohub,2013-03-09 19:35:00,
2013-03-09 14:40:00,55.6,28.4,30.23,SE,134,3.0,7.0,35,0.00,,,0.00,675.0,meteohub,2013-03-09 19:40:00,
2013-03-09 14:45:00,55.6,29.7,30.22,South,171,3.0,7.0,37,0.00,,,0.00,668.0,meteohub,2013-03-09 19:45:00,
2013-03-09 14:50:00,57.0,30.9,30.22,SW,219,0.0,7.0,37,0.00,,,0.00,425.0,meteohub,2013-03-09 19:50:00,
2013-03-09 14:55:00,56.1,31.5,30.23,SE,146,1.0,7.0,39,0.00,,,0.00,642.0,meteohub,2013-03-09 19:55:00,
2013-03-09 15:02:00,56.5,30.6,30.23,South,170,1.0,7.0,37,0.00,,,0.00,626.0,meteohub,2013-03-09 20:02:00,
2013-03-09 15:07:00,55.8,29.8,30.22,SE,128,1.0,7.0,37,0.00,,,0.00,559.0,meteohub,2013-03-09 20:07:00,
2013-03-09 15:12:00,55.8,29.8,30.22,SSW,199,2.0,6.0,37,0.00,,,0.00,584.0,meteohub,2013-03-09 20:12:00,
2013-03-09 15:17:00,55.9,30.7,30.22,West,275,1.0,7.0,38,0.00,,,0.00,591.0,meteohub,2013-03-09 20:17:00,
2013-03-09 15:22:00,56.7,30.0,30.23,South,178,3.0,7.0,36,0.00,,,0.00,577.0,meteohub,2013-03-09 20:22:00,
2013-03-09 15:27:00,56.3,30.4,30.23,SSW,212,3.0,7.0,37,0.00,,,0.00,564.0,meteohub,2013-03-09 20:27:00,
2013-03-09 15:32:00,55.9,30.7,30.23,SSE,161,3.0,6.0,38,0.00,,,0.00,552.0,meteohub,2013-03-09 20:32:00,
2013-03-09 15:37:00,55.9,28.8,30.23,South,171,4.0,6.0,35,0.00,,,0.00,538.0,meteohub,2013-03-09 20:37:00,
2013-03-09 15:42:00,55.2,30.0,30.23,SSE,150,0.0,5.0,38,0.00,,,0.00,522.0,meteohub,2013-03-09 20:42:00,
2013-03-09 15:47:00,55.6,29.7,30.23,SE,145,0.0,6.0,37,0.00,,,0.00,510.0,meteohub,2013-03-09 20:47:00,
2013-03-09 15:52:00,56.1,30.2,30.23,SE,146,1.0,6.0,37,0.00,,,0.00,496.0,meteohub,2013-03-09 20:52:00,
2013-03-09 15:57:00,55.2,30.7,30.22,SSE,153,1.0,8.0,39,0.00,,,0.00,480.0,meteohub,2013-03-09 20:57:00,
2013-03-09 16:02:00,55.6,29.7,30.22,South,182,2.0,8.0,37,0.00,,,0.00,454.0,meteohub,2013-03-09 21:02:00,
2013-03-09 16:07:00,54.7,30.2,30.22,SE,146,1.0,8.0,39,0.00,,,0.00,220.0,meteohub,2013-03-09 21:07:00,
2013-03-09 16:12:00,54.7,31.5,30.22,South,178,1.0,5.0,41,0.00,,,0.00,438.0,meteohub,2013-03-09 21:12:00,
2013-03-09 16:17:00,54.9,30.9,30.23,SE,138,2.0,5.0,40,0.00,,,0.00,441.0,meteohub,2013-03-09 21:17:00,
2013-03-09 16:22:00,54.7,28.9,30.23,SW,231,2.0,5.0,37,0.00,,,0.00,439.0,meteohub,2013-03-09 21:22:00,
2013-03-09 16:27:00,55.2,30.7,30.23,South,169,1.0,5.0,39,0.00,,,0.00,355.0,meteohub,2013-03-09 21:27:00,
2013-03-09 16:32:00,55.0,31.1,30.22,SSE,161,3.0,5.0,40,0.00,,,0.00,329.0,meteohub,2013-03-09 21:32:00,
2013-03-09 16:37:00,54.5,30.0,30.22,SE,130,1.0,5.0,39,0.00,,,0.00,121.0,meteohub,2013-03-09 21:37:00,
2013-03-09 16:42:00,53.4,29.7,30.22,SW,222,0.0,5.0,40,0.00,,,0.00,127.0,meteohub,2013-03-09 21:42:00,
2013-03-09 16:47:00,52.5,30.0,30.22,SW,219,0.0,6.0,42,0.00,,,0.00,102.0,meteohub,2013-03-09 21:47:00,
2013-03-09 16:52:00,53.1,30.0,30.22,SSW,207,0.0,6.0,41,0.00,,,0.00,139.0,meteohub,2013-03-09 21:52:00,
2013-03-09 16:57:00,53.2,29.5,30.23,SE,138,1.0,4.0,40,0.00,,,0.00,353.0,meteohub,2013-03-09 21:57:00,
2013-03-09 17:02:00,53.1,29.3,30.22,SSW,213,3.0,4.0,40,0.00,,,0.00,253.0,meteohub,2013-03-09 22:02:00,
2013-03-09 17:07:00,53.1,30.6,30.22,SW,230,0.0,7.0,42,0.00,,,0.00,93.0,meteohub,2013-03-09 22:07:00,
2013-03-09 17:12:00,53.1,29.3,30.22,SW,230,3.0,7.0,40,0.00,,,0.00,77.0,meteohub,2013-03-09 22:12:00,
2013-03-09 17:17:00,52.7,29.7,30.22,SSW,200,1.0,7.0,41,0.00,,,0.00,86.0,meteohub,2013-03-09 22:17:00,
2013-03-09 17:23:00,52.5,29.5,30.23,SW,225,1.0,4.0,41,0.00,,,0.00,97.0,meteohub,2013-03-09 22:23:00,
2013-03-09 17:28:00,51.8,29.5,30.23,South,190,2.0,4.0,42,0.00,,,0.00,35.0,meteohub,2013-03-09 22:28:00,
2013-03-09 17:33:00,51.1,29.8,30.23,SSE,158,0.0,3.0,44,0.00,,,0.00,67.0,meteohub,2013-03-09 22:33:00,
2013-03-09 17:38:00,51.3,30.6,30.23,SSE,158,0.0,3.0,45,0.00,,,0.00,62.0,meteohub,2013-03-09 22:38:00,
2013-03-09 17:43:00,51.1,29.8,30.23,SSE,159,0.0,3.0,44,0.00,,,0.00,26.0,meteohub,2013-03-09 22:43:00,
2013-03-09 17:48:00,50.5,30.0,30.23,SSE,159,0.0,3.0,45,0.00,,,0.00,23.0,meteohub,2013-03-09 22:48:00,
2013-03-09 17:53:00,49.8,29.3,30.23,SSE,160,1.0,3.0,45,0.00,,,0.00,33.0,meteohub,2013-03-09 22:53:00,
2013-03-09 17:58:00,49.6,29.7,30.23,SSE,160,1.0,3.0,46,0.00,,,0.00,25.0,meteohub,2013-03-09 22:58:00,
2013-03-09 18:03:00,49.5,29.5,30.23,SSE,161,0.0,3.0,46,0.00,,,0.00,18.0,meteohub,2013-03-09 23:03:00,
2013-03-09 18:08:00,48.9,29.1,30.24,SW,219,0.0,3.0,46,0.00,,,0.00,19.0,meteohub,2013-03-09 23:08:00,
2013-03-09 18:13:00,48.9,30.0,30.24,SSE,156,0.0,3.0,48,0.00,,,0.00,19.0,meteohub,2013-03-09 23:13:00,
2013-03-09 18:19:00,48.7,29.5,30.24,SSE,156,0.0,3.0,47,0.00,,,0.00,12.0,meteohub,2013-03-09 23:19:00,
2013-03-09 18:24:00,48.7,29.8,30.24,SSE,156,0.0,3.0,48,0.00,,,0.00,7.0,meteohub,2013-03-09 23:24:00,
2013-03-09 18:29:00,48.4,29.1,30.24,SSW,205,0.0,3.0,47,0.00,,,0.00,0.0,meteohub,2013-03-09 23:29:00,
2013-03-09 18:34:00,48.0,29.8,30.24,SSW,205,1.0,3.0,49,0.00,,,0.00,0.0,meteohub,2013-03-09 23:34:00,
2013-03-09 18:39:00,47.8,29.1,30.24,South,171,1.0,3.0,48,0.00,,,0.00,0.0,meteohub,2013-03-09 23:39:00,
2013-03-09 18:44:00,47.7,29.5,30.24,South,171,0.0,3.0,49,0.00,,,0.00,0.0,meteohub,2013-03-09 23:44:00,
2013-03-09 18:49:00,47.7,30.0,30.25,South,171,1.0,3.0,50,0.00,,,0.00,0.0,meteohub,2013-03-09 23:49:00,
2013-03-09 18:54:00,47.7,29.5,30.24,SSE,165,0.0,3.0,49,0.00,,,0.00,0.0,meteohub,2013-03-09 23:54:00,
2013-03-09 18:59:00,47.7,29.5,30.25,SSE,165,0.0,3.0,49,0.00,,,0.00,0.0,meteohub,2013-03-09 23:59:00,
2013-03-09 19:05:00,47.5,30.2,30.25,SSE,165,0.0,3.0,51,0.00,,,0.00,0.0,meteohub,2013-03-10 00:05:00,
2013-03-09 19:10:00,47.5,29.8,30.24,SSE,165,0.0,3.0,50,0.00,,,0.00,0.0,meteohub,2013-03-10 00:10:00,
2013-03-09 19:15:00,47.3,30.0,30.25,SSE,165,0.0,1.0,51,0.00,,,0.00,0.0,meteohub,2013-03-10 00:15:00,
2013-03-09 19:20:00,47.1,29.5,30.25,SSE,165,0.0,2.0,50,0.00,,,0.00,0.0,meteohub,2013-03-10 00:20:00,
2013-03-09 19:25:00,47.3,29.7,30.25,SSE,165,0.0,2.0,50,0.00,,,0.00,0.0,meteohub,2013-03-10 00:25:00,
2013-03-09 19:30:00,47.3,29.1,30.25,SSE,165,0.0,0.0,49,0.00,,,0.00,0.0,meteohub,2013-03-10 00:30:00,
2013-03-09 19:35:00,47.1,29.5,30.25,SSE,165,0.0,0.0,50,0.00,,,0.00,0.0,meteohub,2013-03-10 00:35:00,
2013-03-09 19:40:00,47.1,29.5,30.25,SSW,194,0.0,2.0,50,0.00,,,0.00,0.0,meteohub,2013-03-10 00:40:00,
2013-03-09 19:45:00,47.3,29.7,30.25,SSW,194,0.0,3.0,50,0.00,,,0.00,0.0,meteohub,2013-03-10 00:45:00,
2013-03-09 19:50:00,47.3,30.0,30.25,SSW,194,0.0,3.0,51,0.00,,,0.00,0.0,meteohub,2013-03-10 00:50:00,
2013-03-09 19:56:00,47.3,30.6,30.25,SSW,194,0.0,1.0,52,0.00,,,0.00,0.0,meteohub,2013-03-10 00:56:00,
2013-03-09 20:01:00,47.1,29.8,30.25,SSW,194,0.0,1.0,51,0.00,,,0.00,0.0,meteohub,2013-03-10 01:01:00,
2013-03-09 20:06:00,47.1,29.8,30.25,SSW,194,0.0,1.0,51,0.00,,,0.00,0.0,meteohub,2013-03-10 01:06:00,
2013-03-09 20:11:00,47.1,29.5,30.25,SSW,194,0.0,1.0,50,0.00,,,0.00,0.0,meteohub,2013-03-10 01:11:00,
2013-03-09 20:16:00,47.1,29.5,30.25,SSW,194,1.0,2.0,50,0.00,,,0.00,0.0,meteohub,2013-03-10 01:16:00,
2013-03-09 20:21:00,47.3,29.7,30.25,SSW,194,0.0,2.0,50,0.00,,,0.00,0.0,meteohub,2013-03-10 01:21:00,
2013-03-09 20:26:00,47.1,29.5,30.25,SSW,194,1.0,3.0,50,0.00,,,0.00,0.0,meteohub,2013-03-10 01:26:00,
2013-03-09 20:31:00,47.1,30.4,30.25,SSW,194,0.0,3.0,52,0.00,,,0.00,0.0,meteohub,2013-03-10 01:31:00,
2013-03-09 20:36:00,46.9,29.3,30.25,SSW,194,0.0,2.0,50,0.00,,,0.00,0.0,meteohub,2013-03-10 01:36:00,
2013-03-09 20:41:00,46.8,29.7,30.25,SSW,194,0.0,2.0,51,0.00,,,0.00,0.0,meteohub,2013-03-10 01:41:00,
2013-03-09 20:46:00,46.8,29.7,30.25,SSW,194,0.0,2.0,51,0.00,,,0.00,0.0,meteohub,2013-03-10 01:46:00,
2013-03-09 20:51:00,46.6,28.9,30.25,SSE,159,1.0,2.0,50,0.00,,,0.00,0.0,meteohub,2013-03-10 01:51:00,
2013-03-09 20:56:00,46.2,28.6,30.25,SSE,159,0.0,4.0,50,0.00,,,0.00,0.0,meteohub,2013-03-10 01:56:00,
2013-03-09 21:02:00,46.0,29.5,30.26,SSE,159,0.0,4.0,52,0.00,,,0.00,0.0,meteohub,2013-03-10 02:02:00,
2013-03-09 21:07:00,45.9,29.3,30.26,SSE,159,0.0,3.0,52,0.00,,,0.00,0.0,meteohub,2013-03-10 02:07:00,
2013-03-09 21:12:00,45.7,29.1,30.26,SSE,158,0.0,3.0,52,0.00,,,0.00,0.0,meteohub,2013-03-10 02:12:00,
2013-03-09 21:17:00,45.7,29.5,30.26,SSE,158,0.0,2.0,53,0.00,,,0.00,0.0,meteohub,2013-03-10 02:17:00,
2013-03-09 21:22:00,45.7,29.1,30.26,SSE,158,0.0,2.0,52,0.00,,,0.00,0.0,meteohub,2013-03-10 02:22:00,
2013-03-09 21:27:00,45.7,28.6,30.26,SSE,158,0.0,3.0,51,0.00,,,0.00,0.0,meteohub,2013-03-10 02:27:00,
2013-03-09 21:32:00,45.7,29.5,30.26,SSE,158,0.0,3.0,53,0.00,,,0.00,0.0,meteohub,2013-03-10 02:32:00,
2013-03-09 21:37:00,45.5,29.3,30.26,SSE,158,0.0,3.0,53,0.00,,,0.00,0.0,meteohub,2013-03-10 02:37:00,
2013-03-09 21:42:00,45.3,29.1,30.26,SSE,158,0.0,1.0,53,0.00,,,0.00,0.0,meteohub,2013-03-10 02:42:00,
2013-03-09 21:47:00,45.3,29.1,30.26,SSE,158,0.0,1.0,53,0.00,,,0.00,0.0,meteohub,2013-03-10 02:47:00,
2013-03-09 21:52:00,45.3,29.1,30.26,SSE,158,0.0,1.0,53,0.00,,,0.00,0.0,meteohub,2013-03-10 02:52:00,
2013-03-09 21:57:00,45.3,28.8,30.27,SSE,158,0.0,1.0,52,0.00,,,0.00,0.0,meteohub,2013-03-10 02:57:00,
2013-03-09 22:02:00,45.5,28.9,30.26,SSE,158,1.0,1.0,52,0.00,,,0.00,0.0,meteohub,2013-03-10 03:02:00,
2013-03-09 22:07:00,45.9,28.8,30.26,SSE,158,0.0,2.0,51,0.00,,,0.00,0.0,meteohub,2013-03-10 03:07:00,
2013-03-09 22:12:00,45.7,28.6,30.27,SSE,158,0.0,2.0,51,0.00,,,0.00,0.0,meteohub,2013-03-10 03:12:00,
2013-03-09 22:17:00,45.5,28.9,30.26,SSE,158,1.0,2.0,52,0.00,,,0.00,0.0,meteohub,2013-03-10 03:17:00,
2013-03-09 22:22:00,45.7,28.6,30.26,SSE,158,0.0,2.0,51,0.00,,,0.00,0.0,meteohub,2013-03-10 03:22:00,
2013-03-09 22:27:00,45.9,28.8,30.26,SSE,158,0.0,2.0,51,0.00,,,0.00,0.0,meteohub,2013-03-10 03:27:00,
2013-03-09 22:32:00,45.5,28.4,30.26,SSE,158,0.0,2.0,51,0.00,,,0.00,0.0,meteohub,2013-03-10 03:32:00,
2013-03-09 22:37:00,45.5,28.4,30.26,SSE,158,1.0,2.0,51,0.00,,,0.00,0.0,meteohub,2013-03-10 03:37:00,
2013-03-09 22:42:00,45.3,28.2,30.26,SSE,158,0.0,2.0,51,0.00,,,0.00,0.0,meteohub,2013-03-10 03:42:00,
2013-03-09 22:47:00,45.1,28.6,30.26,SSE,158,0.0,2.0,52,0.00,,,0.00,0.0,meteohub,2013-03-10 03:47:00,
2013-03-09 22:52:00,45.1,28.6,30.26,SSE,158,1.0,2.0,52,0.00,,,0.00,0.0,meteohub,2013-03-10 03:52:00,
2013-03-09 22:57:00,45.1,28.6,30.25,SSE,158,0.0,1.0,52,0.00,,,0.00,0.0,meteohub,2013-03-10 03:57:00,
2013-03-09 23:02:00,45.1,28.6,30.25,SSE,158,0.0,2.0,52,0.00,,,0.00,0.0,meteohub,2013-03-10 04:02:00,
2013-03-09 23:07:00,45.3,28.8,30.25,SSE,158,0.0,2.0,52,0.00,,,0.00,0.0,meteohub,2013-03-10 04:07:00,
2013-03-09 23:12:00,45.3,28.8,30.25,SSE,158,1.0,2.0,52,0.00,,,0.00,0.0,meteohub,2013-03-10 04:12:00,
2013-03-09 23:17:00,45.3,28.2,30.25,SSE,158,0.0,2.0,51,0.00,,,0.00,0.0,meteohub,2013-03-10 04:17:00,
2013-03-09 23:22:00,45.3,28.2,30.25,SSE,158,0.0,2.0,51,0.00,,,0.00,0.0,meteohub,2013-03-10 04:22:00,
2013-03-09 23:27:00,45.3,28.8,30.25,SSE,158,0.0,1.0,52,0.00,,,0.00,0.0,meteohub,2013-03-10 04:27:00,
2013-03-09 23:32:00,45.1,28.9,30.25,SSE,158,1.0,1.0,53,0.00,,,0.00,0.0,meteohub,2013-03-10 04:32:00,
2013-03-09 23:37:00,45.0,28.4,30.25,SSE,158,1.0,2.0,52,0.00,,,0.00,0.0,meteohub,2013-03-10 04:37:00,
2013-03-09 23:43:00,45.0,28.4,30.25,SSE,158,0.0,2.0,52,0.00,,,0.00,0.0,meteohub,2013-03-10 04:43:00,
2013-03-09 23:48:00,45.1,28.6,30.25,SSE,158,1.0,2.0,52,0.00,,,0.00,0.0,meteohub,2013-03-10 04:48:00,
2013-03-09 23:53:00,45.0,28.4,30.25,SSE,158,0.0,2.0,52,0.00,,,0.00,0.0,meteohub,2013-03-10 04:53:00,
2013-03-09 23:58:00,45.1,28.6,30.24,SSE,158,1.0,1.0,52,0.00,,,0.00,0.0,meteohub,2013-03-10 04:58:00,